createdAt,value
2022-11-05T00:00:30.844Z,100271.59
2022-11-05T00:03:16.204Z,100280.34
2022-11-05T00:06:04.115Z,100284.72
2022-11-05T00:08:50.176Z,100293.44
2022-11-05T00:11:18.414Z,100295.22
2022-11-05T00:14:04.163Z,100295.22
2022-11-05T00:16:46.203Z,100294.28
2022-11-05T00:19:13.477Z,100301.78
2022-11-05T00:21:58.531Z,100301.22
2022-11-05T00:24:44.033Z,100304.78
2022-11-05T00:27:11.041Z,100307.34
2022-11-05T00:29:38.380Z,100305.38
2022-11-05T00:32:05.009Z,100316.59
2022-11-05T00:34:31.867Z,100316.06
2022-11-05T00:36:58.438Z,100306.41
2022-11-05T00:39:25.002Z,100317.50
2022-11-05T00:42:11.523Z,100306.06
2022-11-05T00:44:57.008Z,100317.69
2022-11-05T00:47:42.200Z,100314.72
2022-11-05T00:50:11.038Z,100319.66
2022-11-05T00:52:57.262Z,100321.56
2022-11-05T00:55:38.711Z,100321.09
2022-11-05T00:58:11.846Z,100328.00
2022-11-05T01:00:43.031Z,100322.97
2022-11-05T01:03:13.504Z,100328.56
2022-11-05T01:05:42.735Z,100319.19
2022-11-05T01:08:10.407Z,100331.47
2022-11-05T01:10:45.047Z,100334.28
2022-11-05T01:13:13.500Z,100328.75
2022-11-05T01:15:40.933Z,100337.31
2022-11-05T01:18:07.885Z,100325.06
2022-11-05T01:20:34.452Z,100327.44
2022-11-05T01:23:01.038Z,100336.81
2022-11-05T01:25:27.612Z,100337.53
2022-11-05T01:27:54.172Z,100332.75
2022-11-05T01:30:20.929Z,100341.97
2022-11-05T01:32:47.769Z,100337.69
2022-11-05T01:35:17.367Z,100343.06
2022-11-05T01:37:44.940Z,100338.66
2022-11-05T01:40:16.341Z,100343.00
2022-11-05T01:42:43.789Z,100337.16
2022-11-05T01:45:13.325Z,100341.59
2022-11-05T01:47:43.573Z,100340.63
2022-11-05T01:50:26.640Z,100340.97
2022-11-05T01:53:02.628Z,100350.03
2022-11-05T01:55:34.529Z,100355.69
2022-11-05T01:58:03.326Z,100359.50
2022-11-05T02:00:30.420Z,100364.22
2022-11-05T02:02:57.861Z,100362.72
2022-11-05T02:05:24.635Z,100361.41
2022-11-05T02:07:52.289Z,100361.91
2022-11-05T02:10:19.141Z,100358.03
2022-11-05T02:12:48.413Z,100356.31
2022-11-05T02:15:25.832Z,100358.59
2022-11-05T02:18:10.625Z,100355.69
2022-11-05T02:20:45.753Z,100361.63
2022-11-05T02:23:44.794Z,100351.34
2022-11-05T02:26:36.144Z,100362.47
2022-11-05T02:29:17.972Z,100360.91
2022-11-05T02:32:17.684Z,100350.59
2022-11-05T02:35:02.327Z,100355.28
2022-11-05T02:37:44.241Z,100356.66
2022-11-05T02:40:14.670Z,100361.09
2022-11-05T02:42:56.673Z,100361.97
2022-11-05T02:45:46.171Z,100366.25
2022-11-05T02:48:46.761Z,100369.94
2022-11-05T02:51:40.327Z,100366.94
2022-11-05T02:54:24.557Z,100358.84
2022-11-05T02:56:53.793Z,100366.09
2022-11-05T02:59:20.377Z,100359.84
2022-11-05T03:01:48.575Z,100361.22
2022-11-05T03:04:19.248Z,100362.75
2022-11-05T03:07:18.984Z,100372.97
2022-11-05T03:10:22.972Z,100378.31
2022-11-05T03:13:08.759Z,100384.16
2022-11-05T03:15:48.825Z,100379.41
2022-11-05T03:18:18.297Z,100383.63
2022-11-05T03:21:02.920Z,100387.88
2022-11-05T03:23:36.628Z,100384.38
2022-11-05T03:26:17.551Z,100383.94
2022-11-05T03:28:54.580Z,100396.31
2022-11-05T03:31:23.410Z,100391.78
2022-11-05T03:33:53.296Z,100389.81
2022-11-05T03:36:26.503Z,100397.53
2022-11-05T03:38:56.959Z,100399.63
2022-11-05T03:41:25.214Z,100396.09
2022-11-05T03:43:57.264Z,100398.91
2022-11-05T03:46:38.579Z,100395.84
2022-11-05T03:49:10.725Z,100392.50
2022-11-05T03:51:51.022Z,100396.78
2022-11-05T03:54:17.728Z,100401.44
2022-11-05T03:56:48.667Z,100402.59
2022-11-05T03:59:17.259Z,100414.38
2022-11-05T04:01:44.184Z,100410.13
2022-11-05T04:04:11.304Z,100412.88
2022-11-05T04:06:56.495Z,100409.31
2022-11-05T04:09:41.671Z,100418.78
2022-11-05T04:12:29.500Z,100421.41
2022-11-05T04:14:56.788Z,100421.34
2022-11-05T04:17:24.000Z,100425.38
2022-11-05T04:20:09.260Z,100435.00
2022-11-05T04:22:54.468Z,100436.81
2022-11-05T04:25:25.446Z,100433.47
2022-11-05T04:28:11.781Z,100435.38
2022-11-05T04:30:50.849Z,100433.78
2022-11-05T04:33:25.129Z,100440.81
2022-11-05T04:36:00.585Z,100441.41
2022-11-05T04:38:58.588Z,100432.63
2022-11-05T04:45:05.960Z,100440.97
2022-11-05T04:48:03.891Z,100448.47
2022-11-05T04:50:54.237Z,100447.78
2022-11-05T04:53:33.547Z,100452.34
2022-11-05T04:56:27.776Z,100445.97
2022-11-05T04:59:00.237Z,100447.34
2022-11-05T05:01:41.822Z,100455.06
2022-11-05T05:04:48.507Z,100449.16
2022-11-05T05:07:34.474Z,100454.00
2022-11-05T05:10:24.917Z,100453.88
2022-11-05T05:14:07.083Z,100449.75
2022-11-05T05:17:21.751Z,100450.69
2022-11-05T05:25:00.700Z,100452.41
2022-11-05T05:31:53.309Z,100461.00
2022-11-05T05:35:05.175Z,100461.16
2022-11-05T05:38:14.606Z,100464.19
2022-11-05T05:41:13.883Z,100466.16
2022-11-05T05:48:10.086Z,100469.13
2022-11-05T05:50:55.359Z,100469.81
2022-11-05T05:53:40.306Z,100469.22
2022-11-05T05:56:11.647Z,100484.19
2022-11-05T05:58:54.619Z,100480.81
2022-11-05T06:01:31.301Z,100487.03
2022-11-05T06:03:58.131Z,100494.25
2022-11-05T06:06:28.021Z,100494.72
2022-11-05T06:09:04.294Z,100495.31
2022-11-05T06:11:40.253Z,100494.06
2022-11-05T06:14:10.483Z,100497.47
2022-11-05T06:16:39.130Z,100497.88
2022-11-05T06:19:08.984Z,100501.53
2022-11-05T06:21:35.918Z,100506.50
2022-11-05T06:24:04.052Z,100509.50
2022-11-05T06:26:31.105Z,100506.41
2022-11-05T06:28:57.745Z,100508.06
2022-11-05T06:31:24.849Z,100504.13
2022-11-05T06:33:51.533Z,100507.22
2022-11-05T06:36:19.479Z,100515.38
2022-11-05T06:38:46.727Z,100519.56
2022-11-05T06:41:13.398Z,100511.97
2022-11-05T06:43:40.645Z,100513.94
2022-11-05T06:46:07.368Z,100517.56
2022-11-05T06:48:34.787Z,100527.25
2022-11-05T06:51:12.013Z,100525.44
2022-11-05T06:53:41.072Z,100530.78
2022-11-05T06:56:09.879Z,100527.69
2022-11-05T06:58:36.917Z,100537.34
2022-11-05T07:01:10.817Z,100542.53
2022-11-05T07:03:38.169Z,100540.75
2022-11-05T07:06:06.820Z,100550.25
2022-11-05T07:08:34.953Z,100557.28
2022-11-05T07:11:02.025Z,100561.22
2022-11-05T07:13:29.643Z,100563.81
2022-11-05T07:15:59.520Z,100567.97
2022-11-05T07:18:26.737Z,100565.91
2022-11-05T07:20:53.375Z,100570.75
2022-11-05T07:23:20.248Z,100579.88
2022-11-05T07:25:46.894Z,100581.28
2022-11-05T07:28:14.556Z,100588.63
2022-11-05T07:30:41.426Z,100596.84
2022-11-05T07:33:08.815Z,100589.94
2022-11-05T07:35:36.018Z,100596.13
2022-11-05T07:38:03.735Z,100598.13
2022-11-05T07:40:30.562Z,100606.25
2022-11-05T07:43:00.129Z,100603.88
2022-11-05T07:45:29.044Z,100609.66
2022-11-05T07:48:00.649Z,100612.94
2022-11-05T07:50:31.302Z,100610.81
2022-11-05T07:53:02.665Z,100616.94
2022-11-05T07:55:30.063Z,100615.16
2022-11-05T07:57:56.959Z,100615.28
2022-11-05T08:00:25.091Z,100618.47
2022-11-05T08:03:07.344Z,100625.91
2022-11-05T08:05:41.005Z,100630.81
2022-11-05T08:08:09.478Z,100635.00
2022-11-05T08:10:37.661Z,100629.53
2022-11-05T08:13:05.482Z,100643.47
2022-11-05T08:15:32.457Z,100644.03
2022-11-05T08:18:03.487Z,100646.81
2022-11-05T08:20:33.417Z,100646.03
2022-11-05T08:23:07.918Z,100650.16
2022-11-05T08:25:49.043Z,100655.91
2022-11-05T08:28:15.841Z,100654.34
2022-11-05T08:30:42.689Z,100654.56
2022-11-05T08:33:12.740Z,100657.34
2022-11-05T08:35:40.335Z,100664.91
2022-11-05T08:38:09.816Z,100663.69
2022-11-05T08:40:36.855Z,100666.22
2022-11-05T08:43:06.862Z,100664.72
2022-11-05T08:45:39.701Z,100658.81
2022-11-05T08:48:12.340Z,100667.34
2022-11-05T08:50:43.190Z,100674.25
2022-11-05T08:53:12.971Z,100674.88
2022-11-05T08:55:43.859Z,100679.78
2022-11-05T08:58:12.693Z,100674.94
2022-11-05T09:00:53.089Z,100677.25
2022-11-05T09:03:22.586Z,100672.69
2022-11-05T09:05:49.434Z,100674.06
2022-11-05T09:08:18.402Z,100676.91
2022-11-05T09:10:46.537Z,100670.28
2022-11-05T09:13:18.906Z,100660.13
2022-11-05T09:15:50.343Z,100666.94
2022-11-05T09:18:17.866Z,100673.25
2022-11-05T09:20:45.118Z,100667.38
2022-11-05T09:23:14.730Z,100673.72
2022-11-05T09:25:42.061Z,100668.19
2022-11-05T09:28:08.854Z,100665.75
2022-11-05T09:30:38.909Z,100665.59
2022-11-05T09:33:05.530Z,100663.72
2022-11-05T09:35:32.139Z,100677.19
2022-11-05T09:38:01.066Z,100671.34
2022-11-05T09:40:32.513Z,100673.31
2022-11-05T09:43:00.601Z,100678.88
2022-11-05T09:45:28.697Z,100683.59
2022-11-05T09:48:05.056Z,100683.97
2022-11-05T09:50:40.488Z,100683.63
2022-11-05T09:53:07.880Z,100684.69
2022-11-05T09:55:41.933Z,100689.41
2022-11-05T09:58:28.387Z,100680.47
2022-11-05T10:00:55.619Z,100688.44
2022-11-05T10:03:23.864Z,100686.38
2022-11-05T10:05:58.200Z,100686.44
2022-11-05T10:08:29.713Z,100695.22
2022-11-05T10:11:03.083Z,100693.66
2022-11-05T10:13:37.684Z,100696.06
2022-11-05T10:16:29.433Z,100701.78
2022-11-05T10:19:06.392Z,100712.53
2022-11-05T10:22:04.477Z,100701.22
2022-11-05T10:24:21.161Z,100701.00
2022-11-05T10:26:50.736Z,100695.69
2022-11-05T10:29:27.457Z,100703.19
2022-11-05T10:31:55.949Z,100704.88
2022-11-05T10:34:26.368Z,100710.06
2022-11-05T10:36:54.343Z,100709.84
2022-11-05T10:39:23.290Z,100707.91
2022-11-05T10:42:08.549Z,100701.88
2022-11-05T10:44:48.539Z,100711.78
2022-11-05T10:47:46.171Z,100700.56
2022-11-05T10:50:23.296Z,100702.84
2022-11-05T10:53:16.832Z,100698.84
2022-11-05T10:55:51.537Z,100689.16
2022-11-05T10:58:21.181Z,100695.09
2022-11-05T11:00:53.900Z,100686.22
2022-11-05T11:03:38.796Z,100697.91
2022-11-05T11:06:27.392Z,100688.88
2022-11-05T11:08:56.955Z,100690.56
2022-11-05T11:11:36.100Z,100690.50
2022-11-05T11:14:05.153Z,100691.56
2022-11-05T11:16:44.088Z,100692.22
2022-11-05T11:19:33.449Z,100690.22
2022-11-05T11:22:03.694Z,100682.50
2022-11-05T11:24:41.495Z,100681.38
2022-11-05T11:27:18.190Z,100684.00
2022-11-05T11:30:05.179Z,100688.75
2022-11-05T11:32:46.160Z,100688.22
2022-11-05T11:35:27.960Z,100683.78
2022-11-05T11:37:57.258Z,100684.31
2022-11-05T11:40:38.222Z,100680.41
2022-11-05T11:43:15.164Z,100679.25
2022-11-05T11:45:53.952Z,100689.91
2022-11-05T11:48:40.695Z,100682.38
2022-11-05T11:51:49.523Z,100676.31
2022-11-05T11:54:28.840Z,100665.88
2022-11-05T11:56:55.843Z,100665.66
2022-11-05T11:59:53.857Z,100674.34
2022-11-05T12:02:34.848Z,100677.00
2022-11-05T12:05:27.633Z,100686.56
2022-11-05T12:07:57.943Z,100680.38
2022-11-05T12:10:42.611Z,100683.81
2022-11-05T12:13:18.381Z,100677.06
2022-11-05T12:15:57.639Z,100681.44
2022-11-05T12:18:48.485Z,100675.94
2022-11-05T12:21:51.450Z,100678.66
2022-11-05T12:24:31.826Z,100674.41
2022-11-05T12:27:44.131Z,100675.97
2022-11-05T12:30:23.698Z,100681.94
2022-11-05T12:33:25.861Z,100686.81
2022-11-05T12:36:21.158Z,100681.47
2022-11-05T12:39:19.175Z,100676.22
2022-11-05T12:41:49.019Z,100681.34
2022-11-05T12:44:40.944Z,100682.84
2022-11-05T12:47:33.509Z,100683.56
2022-11-05T12:50:18.025Z,100693.81
2022-11-05T12:52:59.876Z,100685.59
2022-11-05T12:55:33.132Z,100683.88
2022-11-05T12:58:10.344Z,100681.25
2022-11-05T13:00:40.691Z,100688.50
2022-11-05T13:03:07.160Z,100684.09
2022-11-05T13:05:42.041Z,100677.78
2022-11-05T13:08:24.254Z,100686.00
2022-11-05T13:11:14.185Z,100684.50
2022-11-05T13:13:51.651Z,100669.56
2022-11-05T13:16:47.631Z,100672.97
2022-11-05T13:19:22.911Z,100666.66
2022-11-05T13:21:56.550Z,100669.34
2022-11-05T13:24:39.089Z,100670.19
2022-11-05T13:27:19.144Z,100670.44
2022-11-05T13:29:52.733Z,100663.88
2022-11-05T13:32:40.824Z,100657.09
2022-11-05T13:35:17.711Z,100657.09
2022-11-05T13:38:08.349Z,100665.97
2022-11-05T13:40:51.665Z,100666.97
2022-11-05T13:43:57.800Z,100665.16
2022-11-05T13:47:01.363Z,100666.50
2022-11-05T13:50:06.711Z,100671.44
2022-11-05T13:52:48.483Z,100668.81
2022-11-05T13:55:42.279Z,100666.97
2022-11-05T13:58:11.893Z,100666.47
2022-11-05T14:01:13.910Z,100667.91
2022-11-05T14:03:47.146Z,100656.44
2022-11-05T14:06:14.247Z,100660.47
2022-11-05T14:08:44.523Z,100651.19
2022-11-05T14:11:37.219Z,100662.94
2022-11-05T14:14:26.006Z,100645.50
2022-11-05T14:17:08.277Z,100658.88
2022-11-05T14:20:02.698Z,100656.72
2022-11-05T14:22:33.264Z,100667.56
2022-11-05T14:25:02.020Z,100660.84
2022-11-05T14:27:28.483Z,100649.47
2022-11-05T14:29:55.605Z,100659.72
2022-11-05T14:32:23.624Z,100667.84
2022-11-05T14:35:14.841Z,100663.34
2022-11-05T14:37:50.287Z,100666.47
2022-11-05T14:40:28.922Z,100672.25
2022-11-05T14:43:01.581Z,100672.25
2022-11-05T14:45:35.834Z,100672.63
2022-11-05T14:48:23.359Z,100673.00
2022-11-05T14:50:50.697Z,100678.09
2022-11-05T14:53:39.383Z,100678.22
2022-11-05T14:56:15.931Z,100684.97
2022-11-05T14:58:44.166Z,100679.50
2022-11-05T15:01:13.672Z,100687.00
2022-11-05T15:03:45.790Z,100684.72
2022-11-05T15:06:35.126Z,100681.50
2022-11-05T15:09:15.707Z,100677.84
2022-11-05T15:11:54.739Z,100680.34
2022-11-05T15:14:28.622Z,100669.81
2022-11-05T15:17:13.443Z,100675.69
2022-11-05T15:19:41.308Z,100679.63
2022-11-05T15:22:20.681Z,100679.53
2022-11-05T15:24:47.450Z,100682.09
2022-11-05T15:27:20.938Z,100677.78
2022-11-05T15:29:48.008Z,100681.78
2022-11-05T15:32:23.588Z,100686.59
2022-11-05T15:34:52.720Z,100688.13
2022-11-05T15:37:27.905Z,100682.25
2022-11-05T15:39:55.738Z,100684.94
2022-11-05T15:42:24.576Z,100692.28
2022-11-05T15:44:53.481Z,100687.59
2022-11-05T15:47:34.334Z,100683.25
2022-11-05T15:50:07.472Z,100670.22
2022-11-05T15:52:42.257Z,100678.66
2022-11-05T15:55:19.576Z,100676.84
2022-11-05T15:57:52.056Z,100670.13
2022-11-05T16:00:22.346Z,100672.22
2022-11-05T16:03:00.810Z,100670.63
2022-11-05T16:05:30.830Z,100669.75
2022-11-05T16:07:58.756Z,100675.34
2022-11-05T16:10:32.434Z,100665.75
2022-11-05T16:13:41.226Z,100669.09
2022-11-05T16:16:13.565Z,100669.47
2022-11-05T16:18:42.605Z,100673.31
2022-11-05T16:21:12.588Z,100676.16
2022-11-05T16:23:49.587Z,100665.94
2022-11-05T16:27:01.135Z,100670.47
2022-11-05T16:29:29.347Z,100670.44
2022-11-05T16:31:57.683Z,100667.59
2022-11-05T16:34:52.429Z,100655.19
2022-11-05T16:37:23.727Z,100664.44
2022-11-05T16:39:50.945Z,100661.06
2022-11-05T16:42:39.778Z,100660.72
2022-11-05T16:45:07.642Z,100665.94
2022-11-05T16:47:34.751Z,100676.19
2022-11-05T16:50:01.431Z,100668.56
2022-11-05T16:52:28.146Z,100664.63
2022-11-05T16:54:54.736Z,100670.25
2022-11-05T16:57:28.994Z,100681.38
2022-11-05T16:59:56.901Z,100680.72
2022-11-05T17:02:23.820Z,100685.50
2022-11-05T17:04:50.933Z,100685.63
2022-11-05T17:07:17.460Z,100679.72
2022-11-05T17:09:44.108Z,100682.91
2022-11-05T17:12:11.247Z,100689.50
2022-11-05T17:14:37.814Z,100700.31
2022-11-05T17:17:04.752Z,100691.81
2022-11-05T17:19:31.631Z,100707.03
2022-11-05T17:21:58.202Z,100706.88
2022-11-05T17:24:24.788Z,100706.31
2022-11-05T17:26:51.368Z,100712.19
2022-11-05T17:29:17.891Z,100707.72
2022-11-05T17:31:44.843Z,100722.16
2022-11-05T17:34:11.404Z,100715.16
2022-11-05T17:36:37.970Z,100713.78
2022-11-05T17:39:04.728Z,100721.72
2022-11-05T17:41:31.351Z,100718.16
2022-11-05T17:43:59.024Z,100718.03
2022-11-05T17:46:25.768Z,100720.28
2022-11-05T17:48:52.699Z,100721.22
2022-11-05T17:51:20.281Z,100719.53
2022-11-05T17:53:49.498Z,100715.31
2022-11-05T17:56:28.949Z,100717.41
2022-11-05T17:59:00.675Z,100719.03
2022-11-05T18:01:32.822Z,100717.38
2022-11-05T18:04:03.823Z,100719.91
2022-11-05T18:06:34.982Z,100724.41
2022-11-05T18:09:01.968Z,100722.66
2022-11-05T18:11:28.596Z,100712.97
2022-11-05T18:13:55.313Z,100712.28
2022-11-05T18:16:21.985Z,100718.69
2022-11-05T18:18:49.212Z,100710.97
2022-11-05T18:21:16.043Z,100719.91
2022-11-05T18:23:43.110Z,100709.88
2022-11-05T18:26:11.130Z,100708.75
2022-11-05T18:28:38.347Z,100703.69
2022-11-05T18:31:15.285Z,100698.81
2022-11-05T18:33:44.555Z,100700.88
2022-11-05T18:36:19.113Z,100700.34
2022-11-05T18:38:47.533Z,100698.34
2022-11-05T18:41:14.711Z,100698.22
2022-11-05T18:43:41.345Z,100701.50
2022-11-05T18:46:08.405Z,100704.09
2022-11-05T18:48:36.147Z,100696.84
2022-11-05T18:51:14.940Z,100699.19
2022-11-05T18:53:42.068Z,100703.78
2022-11-05T18:56:14.010Z,100697.78
2022-11-05T18:58:41.527Z,100694.78
2022-11-05T19:01:16.336Z,100696.88
2022-11-05T19:03:43.536Z,100705.28
2022-11-05T19:06:10.317Z,100697.06
2022-11-05T19:08:37.360Z,100703.88
2022-11-05T19:11:09.806Z,100695.16
2022-11-05T19:13:36.654Z,100696.59
2022-11-05T19:16:10.810Z,100698.88
2022-11-05T19:18:38.443Z,100699.88
2022-11-05T19:21:13.751Z,100696.50
2022-11-05T19:23:40.523Z,100691.69
2022-11-05T19:26:09.337Z,100686.25
2022-11-05T19:28:36.821Z,100676.53
2022-11-05T19:31:04.075Z,100694.47
2022-11-05T19:33:31.530Z,100698.22
2022-11-05T19:35:59.641Z,100694.06
2022-11-05T19:38:26.337Z,100697.31
2022-11-05T19:40:52.998Z,100700.16
2022-11-05T19:43:19.547Z,100698.72
2022-11-05T19:45:46.281Z,100699.84
2022-11-05T19:48:18.866Z,100701.28
2022-11-05T19:50:46.165Z,100698.00
2022-11-05T19:53:12.908Z,100684.91
2022-11-05T19:55:40.658Z,100688.72
2022-11-05T19:58:09.367Z,100687.41
2022-11-05T20:00:36.933Z,100690.34
2022-11-05T20:03:03.995Z,100696.72
2022-11-05T20:05:32.912Z,100704.53
2022-11-05T20:07:59.977Z,100700.00
2022-11-05T20:10:26.662Z,100705.78
2022-11-05T20:12:53.204Z,100696.84
2022-11-05T20:15:19.972Z,100703.81
2022-11-05T20:17:51.116Z,100694.19
2022-11-05T20:20:18.573Z,100696.63
2022-11-05T20:22:45.248Z,100688.78
2022-11-05T20:25:12.585Z,100689.34
2022-11-05T20:27:39.654Z,100684.56
2022-11-05T20:30:06.870Z,100687.34
2022-11-05T20:32:33.427Z,100690.63
2022-11-05T20:34:59.977Z,100686.34
2022-11-05T20:37:26.710Z,100681.94
2022-11-05T20:39:53.394Z,100685.56
2022-11-05T20:42:20.036Z,100692.31
2022-11-05T20:44:46.920Z,100692.25
2022-11-05T20:47:13.481Z,100691.47
2022-11-05T20:49:40.158Z,100698.25
2022-11-05T20:52:06.669Z,100694.97
2022-11-05T20:54:33.247Z,100694.16
2022-11-05T20:56:59.993Z,100702.22
2022-11-05T20:59:26.619Z,100695.09
2022-11-05T21:01:53.232Z,100692.31
2022-11-05T21:04:20.053Z,100701.56
2022-11-05T21:06:46.617Z,100695.44
2022-11-05T21:09:13.213Z,100705.44
2022-11-05T21:11:58.266Z,100701.84
2022-11-05T21:14:24.850Z,100701.97
2022-11-05T21:16:51.745Z,100697.66
2022-11-05T21:19:18.420Z,100704.59
2022-11-05T21:21:45.295Z,100702.53
2022-11-05T21:24:11.849Z,100704.38
2022-11-05T21:26:38.774Z,100700.25
2022-11-05T21:29:05.339Z,100692.19
2022-11-05T21:31:31.988Z,100693.31
2022-11-05T21:33:58.621Z,100692.63
2022-11-05T21:36:25.151Z,100705.25
2022-11-05T21:38:51.664Z,100700.03
2022-11-05T21:41:18.637Z,100700.56
2022-11-05T21:43:45.295Z,100699.13
2022-11-05T21:46:13.447Z,100688.28
2022-11-05T21:48:40.041Z,100683.34
2022-11-05T21:51:25.276Z,100682.09
2022-11-05T21:54:10.630Z,100682.56
2022-11-05T21:56:56.315Z,100685.28
2022-11-05T21:59:57.104Z,100676.94
2022-11-05T22:02:25.628Z,100671.94
2022-11-05T22:04:54.186Z,100670.69
2022-11-05T22:07:24.452Z,100674.16
2022-11-05T22:09:51.168Z,100661.06
2022-11-05T22:12:18.035Z,100665.16
2022-11-05T22:14:44.664Z,100663.03
2022-11-05T22:17:12.459Z,100656.53
2022-11-05T22:19:39.687Z,100649.59
2022-11-05T22:22:07.840Z,100635.28
2022-11-05T22:24:35.457Z,100627.00
2022-11-05T22:27:04.414Z,100639.06
2022-11-05T22:29:30.982Z,100642.97
2022-11-05T22:31:57.734Z,100640.09
2022-11-05T22:34:25.636Z,100648.38
2022-11-05T22:36:52.303Z,100644.38
2022-11-05T22:39:19.321Z,100637.88
2022-11-05T22:41:46.766Z,100636.06
2022-11-05T22:44:14.158Z,100643.59
2022-11-05T22:46:41.690Z,100637.34
2022-11-05T22:49:08.336Z,100632.88
2022-11-05T22:51:37.480Z,100638.41
2022-11-05T22:54:05.118Z,100639.78
2022-11-05T22:56:35.644Z,100640.88
2022-11-05T22:59:03.206Z,100639.19
2022-11-05T23:01:30.181Z,100635.88
2022-11-05T23:03:58.509Z,100633.06
2022-11-05T23:06:46.823Z,100631.59
2022-11-05T23:09:35.539Z,100627.97
2022-11-05T23:12:04.628Z,100633.53
2022-11-05T23:14:31.561Z,100637.56
2022-11-05T23:17:16.757Z,100624.91
2022-11-05T23:20:02.020Z,100633.41
2022-11-05T23:22:49.605Z,100624.69
2022-11-05T23:25:20.331Z,100629.75
2022-11-05T23:27:50.047Z,100621.97
2022-11-05T23:30:20.007Z,100625.97
2022-11-05T23:32:47.467Z,100618.41
2022-11-05T23:35:14.602Z,100623.69
2022-11-05T23:37:59.537Z,100614.25
2022-11-05T23:40:31.815Z,100608.44
2022-11-05T23:43:21.382Z,100612.97
2022-11-05T23:46:17.889Z,100607.94
2022-11-05T23:48:44.445Z,100608.00
2022-11-05T23:51:12.298Z,100599.94
2022-11-05T23:53:40.646Z,100596.47
2022-11-05T23:56:10.493Z,100596.97
2022-11-05T23:58:38.683Z,100585.06
